Time;durP1;ratioP1;P1;durP2;ratioP2;P2;SDS_P1;SDS_P2;PMS_P1;PMS_P2;Temp;Humidity;BMP_temperature;BMP_pressure;BME280_temperature;BME280_humidity;BME280_pressure;Samples;Min_cycle;Max_cycle;Signal;HPM_P1;HPM_P2
2023/06/16 00:01:23;;;;;;;1.65;1.30;;;24.30;49.40;;;;;;5033908;28;20033;-79
2023/06/16 00:03:51;;;;;;;2.78;1.45;;;24.30;48.90;;;;;;5033822;28;20029;-79
2023/06/16 00:06:19;;;;;;;3.95;1.80;;;24.30;49.00;;;;;;5033748;28;20025;-78
2023/06/16 00:08:54;;;;;;;3.42;1.70;;;24.30;49.00;;;;;;5033516;28;20140;-79
2023/06/16 00:11:20;;;;;;;2.30;1.52;;;24.30;48.90;;;;;;5032802;28;20060;-79
2023/06/16 00:13:47;;;;;;;4.38;1.63;;;24.40;49.00;;;;;;5032888;28;20466;-79
2023/06/16 00:16:14;;;;;;;4.07;1.85;;;24.40;49.00;;;;;;5032232;28;20029;-79
2023/06/16 00:18:43;;;;;;;2.33;1.45;;;24.40;48.90;;;;;;5033121;28;20029;-79
2023/06/16 00:21:10;;;;;;;2.67;1.15;;;24.30;48.90;;;;;;5033663;28;20029;-79
2023/06/16 00:23:36;;;;;;;1.67;1.27;;;24.30;49.20;;;;;;5033380;28;20056;-79
2023/06/16 00:26:02;;;;;;;2.53;1.45;;;24.30;49.80;;;;;;5015581;28;20115;-78
2023/06/16 00:28:27;;;;;;;1.90;0.93;;;24.30;49.80;;;;;;5032410;28;20033;-79
2023/06/16 00:30:53;;;;;;;1.48;0.85;;;24.40;50.10;;;;;;5031924;28;20433;-79
2023/06/16 00:33:19;;;;;;;2.53;1.20;;;24.30;50.10;;;;;;5033017;28;20470;-78
2023/06/16 00:35:45;;;;;;;3.55;1.40;;;24.40;50.10;;;;;;5032438;28;20108;-79
2023/06/16 00:38:11;;;;;;;4.13;1.38;;;24.30;50.20;;;;;;5015399;28;20534;-79
2023/06/16 00:40:37;;;;;;;1.77;1.20;;;24.30;50.10;;;;;;5033277;28;20104;-79
2023/06/16 00:43:03;;;;;;;2.75;1.30;;;24.30;50.00;;;;;;5032750;28;20436;-79
2023/06/16 00:45:29;;;;;;;1.85;1.38;;;24.20;51.00;;;;;;5032432;28;20033;-79
2023/06/16 00:47:56;;;;;;;1.33;1.23;;;24.20;50.30;;;;;;5031647;28;20111;-79
2023/06/16 00:50:23;;;;;;;3.00;1.70;;;24.30;50.90;;;;;;5033450;28;20029;-79
2023/06/16 00:52:50;;;;;;;2.20;1.35;;;24.20;50.60;;;;;;5031751;28;20113;-79
2023/06/16 00:55:16;;;;;;;3.28;1.20;;;24.20;50.50;;;;;;5032860;28;20108;-79
2023/06/16 00:57:42;;;;;;;3.40;1.40;;;24.10;50.80;;;;;;5033200;28;20080;-79
2023/06/16 01:00:11;;;;;;;1.75;1.30;;;24.10;50.70;;;;;;5031246;28;20033;-79
2023/06/16 01:02:38;;;;;;;4.75;1.52;;;24.10;50.70;;;;;;5032711;28;20018;-79
2023/06/16 01:05:07;;;;;;;1.92;1.45;;;24.10;50.90;;;;;;5031557;28;20030;-79
2023/06/16 01:07:53;;;;;;;2.28;1.15;;;24.10;50.60;;;;;;5032736;28;20120;-79
2023/06/16 01:10:37;;;;;;;4.53;1.67;;;24.10;50.80;;;;;;5001242;28;20119;-79
2023/06/16 01:13:15;;;;;;;4.10;1.42;;;24.10;50.60;;;;;;5032559;28;20518;-79
2023/06/16 01:15:42;;;;;;;1.58;1.38;;;24.10;51.10;;;;;;5033070;28;20533;-79
2023/06/16 01:18:09;;;;;;;1.92;1.33;;;24.10;50.80;;;;;;5031168;28;20034;-79
2023/06/16 01:21:09;;;;;;;2.42;1.60;;;24.10;51.00;;;;;;5032859;28;20113;-79
2023/06/16 01:23:56;;;;;;;2.78;1.27;;;24.10;51.20;;;;;;5032963;28;20030;-79
2023/06/16 01:26:23;;;;;;;3.38;1.70;;;24.10;51.10;;;;;;5036046;28;20033;-79
2023/06/16 01:28:51;;;;;;;2.80;1.58;;;24.10;51.20;;;;;;5034810;28;20038;-79
2023/06/16 01:31:19;;;;;;;3.15;1.23;;;24.10;51.30;;;;;;5036096;28;20018;-79
2023/06/16 01:33:46;;;;;;;3.42;1.48;;;24.00;51.60;;;;;;5034727;28;20128;-78
2023/06/16 01:36:13;;;;;;;1.80;1.15;;;24.00;51.40;;;;;;5035966;28;20036;-79
2023/06/16 01:38:39;;;;;;;2.00;1.52;;;24.00;51.70;;;;;;5034986;28;20083;-79
2023/06/16 01:41:06;;;;;;;5.45;1.23;;;23.90;51.40;;;;;;5034693;28;20098;-79
2023/06/16 01:43:33;;;;;;;3.83;1.85;;;23.90;51.90;;;;;;5035788;28;20100;-79
2023/06/16 01:45:59;;;;;;;1.95;1.42;;;23.80;51.90;;;;;;5034874;28;20112;-79
2023/06/16 01:48:26;;;;;;;5.53;2.33;;;23.90;52.00;;;;;;5035681;28;20065;-79
2023/06/16 01:50:52;;;;;;;1.60;1.23;;;23.90;51.90;;;;;;5036026;28;20049;-78
2023/06/16 01:53:17;;;;;;;3.30;1.90;;;23.90;52.00;;;;;;5035406;28;20088;-78
2023/06/16 01:55:51;;;;;;;3.33;1.40;;;23.80;51.90;;;;;;5035908;28;20032;-78
2023/06/16 01:58:20;;;;;;;2.03;1.52;;;23.90;52.10;;;;;;5036087;28;20040;-78
2023/06/16 02:01:04;;;;;;;3.92;1.85;;;23.80;52.60;;;;;;5034731;28;20141;-79
2023/06/16 02:03:46;;;;;;;2.42;1.95;;;23.80;51.80;;;;;;5035446;28;20021;-78
2023/06/16 02:06:20;;;;;;;2.95;1.83;;;23.70;51.70;;;;;;5035852;28;20030;-79
2023/06/16 02:08:47;;;;;;;3.72;2.00;;;23.60;52.20;;;;;;5035258;28;20549;-78
2023/06/16 02:11:14;;;;;;;2.05;1.40;;;23.60;51.70;;;;;;5035600;28;20089;-78
2023/06/16 02:13:42;;;;;;;2.78;1.80;;;23.50;52.50;;;;;;5001325;28;20033;-78
2023/06/16 02:16:07;;;;;;;3.22;1.60;;;23.40;52.20;;;;;;5017680;28;20060;-78
2023/06/16 02:18:33;;;;;;;2.92;1.90;;;23.30;52.60;;;;;;5017257;28;20067;-79
2023/06/16 02:20:59;;;;;;;4.90;2.00;;;23.30;52.60;;;;;;5035576;28;20037;-78
2023/06/16 02:23:25;;;;;;;2.28;1.92;;;23.20;52.60;;;;;;5035060;28;20374;-79
2023/06/16 02:25:51;;;;;;;2.53;1.55;;;23.10;53.30;;;;;;5035037;28;20064;-78
2023/06/16 02:28:17;;;;;;;4.20;1.80;;;23.20;53.20;;;;;;5017258;28;20077;-78
2023/06/16 02:30:43;;;;;;;3.78;1.40;;;23.20;53.60;;;;;;5034922;28;20059;-78
2023/06/16 02:33:11;;;;;;;4.07;2.05;;;23.20;53.80;;;;;;5034860;28;20087;-78
2023/06/16 02:35:36;;;;;;;2.55;1.63;;;23.20;53.60;;;;;;5033050;28;20037;-79
2023/06/16 02:38:02;;;;;;;4.47;1.70;;;23.20;53.70;;;;;;5034761;28;20037;-78
2023/06/16 02:40:28;;;;;;;1.95;1.38;;;23.20;53.70;;;;;;5033600;28;20030;-78
2023/06/16 02:42:54;;;;;;;3.97;2.15;;;23.20;54.10;;;;;;5034715;28;20017;-78
2023/06/16 02:45:20;;;;;;;2.13;1.30;;;23.20;53.60;;;;;;5034323;28;20486;-78
2023/06/16 02:47:46;;;;;;;2.17;1.67;;;23.20;54.00;;;;;;5016479;28;20062;-79
2023/06/16 02:50:11;;;;;;;2.25;1.38;;;23.20;54.30;;;;;;5034775;28;20031;-78
2023/06/16 02:52:41;;;;;;;2.13;1.55;;;23.20;54.40;;;;;;5034637;28;20108;-78
2023/06/16 02:55:08;;;;;;;2.55;1.27;;;23.20;54.40;;;;;;5034435;28;20072;-79
2023/06/16 02:57:34;;;;;;;2.08;1.75;;;23.20;54.50;;;;;;5033509;28;20037;-78
2023/06/16 02:59:59;;;;;;;2.97;2.03;;;23.20;54.20;;;;;;5017514;28;20343;-79
2023/06/16 03:02:25;;;;;;;4.00;1.70;;;23.10;54.00;;;;;;5033378;28;20041;-78
2023/06/16 03:04:51;;;;;;;3.72;1.48;;;23.10;54.30;;;;;;5033222;28;20034;-79
2023/06/16 03:07:17;;;;;;;3.53;1.65;;;23.10;54.50;;;;;;5016746;28;20033;-79
2023/06/16 03:09:43;;;;;;;2.60;1.83;;;23.10;54.40;;;;;;5033482;28;20382;-78
2023/06/16 03:12:09;;;;;;;3.10;2.47;;;23.10;54.10;;;;;;5034684;28;20021;-79
2023/06/16 03:14:35;;;;;;;4.38;1.90;;;22.90;53.80;;;;;;5034308;28;20026;-79
2023/06/16 03:17:01;;;;;;;2.03;1.40;;;22.90;54.20;;;;;;5001203;28;20466;-79
2023/06/16 03:19:27;;;;;;;2.47;1.40;;;23.00;54.80;;;;;;5032937;28;20033;-78
2023/06/16 03:21:53;;;;;;;1.80;1.60;;;23.00;55.00;;;;;;5034496;28;20033;-78
2023/06/16 03:24:19;;;;;;;3.53;2.00;;;23.00;54.80;;;;;;5033637;28;20033;-78
2023/06/16 03:26:46;;;;;;;3.03;2.03;;;23.00;54.60;;;;;;5034090;28;20037;-79
2023/06/16 03:29:12;;;;;;;2.83;1.85;;;22.90;54.30;;;;;;5034375;28;20040;-79
2023/06/16 03:31:39;;;;;;;3.40;1.63;;;22.90;54.20;;;;;;5017192;28;20030;-79
2023/06/16 03:34:05;;;;;;;2.85;1.70;;;23.00;54.30;;;;;;5034358;28;20465;-79
2023/06/16 03:36:36;;;;;;;3.53;1.70;;;23.00;54.20;;;;;;5000068;28;20040;-78
2023/06/16 03:39:05;;;;;;;2.72;2.05;;;23.00;54.00;;;;;;5017198;28;20466;-78
2023/06/16 03:41:32;;;;;;;3.58;1.90;;;22.90;54.00;;;;;;5016351;28;20033;-79
2023/06/16 03:43:58;;;;;;;1.67;1.35;;;22.90;54.30;;;;;;5033911;28;20030;-79
2023/06/16 03:46:24;;;;;;;2.50;1.63;;;22.90;54.60;;;;;;5033840;28;20120;-79
2023/06/16 03:48:49;;;;;;;3.85;1.77;;;22.90;54.80;;;;;;5031882;28;20060;-78
2023/06/16 03:51:16;;;;;;;2.63;1.50;;;22.80;54.80;;;;;;5033996;28;20391;-79
2023/06/16 03:53:41;;;;;;;1.73;1.60;;;22.80;54.90;;;;;;5033736;28;20482;-78
2023/06/16 03:56:07;;;;;;;2.42;1.98;;;22.80;55.30;;;;;;5033652;28;20025;-78
2023/06/16 03:58:33;;;;;;;2.88;2.03;;;22.80;55.20;;;;;;5033417;28;20485;-79
2023/06/16 04:00:59;;;;;;;5.25;2.15;;;22.80;55.00;;;;;;5032955;28;20026;-78
2023/06/16 04:03:26;;;;;;;2.00;1.60;;;22.70;55.20;;;;;;5033474;28;20025;-78
2023/06/16 04:05:53;;;;;;;1.40;1.25;;;22.70;55.70;;;;;;5033527;28;20026;-78
2023/06/16 04:08:20;;;;;;;2.55;2.10;;;22.70;56.10;;;;;;5032686;28;20037;-79
2023/06/16 04:10:46;;;;;;;3.63;2.05;;;22.80;56.00;;;;;;5033491;28;20099;-79
2023/06/16 04:13:12;;;;;;;4.00;1.98;;;22.80;55.90;;;;;;5033618;28;20029;-79
2023/06/16 04:15:37;;;;;;;2.47;1.45;;;22.70;55.40;;;;;;5032329;28;20037;-78
2023/06/16 04:18:03;;;;;;;3.03;1.92;;;22.80;55.90;;;;;;5032296;28;20486;-78
2023/06/16 04:20:29;;;;;;;2.78;1.40;;;22.70;55.90;;;;;;5033160;28;20029;-78
2023/06/16 04:22:55;;;;;;;5.65;2.13;;;22.70;55.90;;;;;;5032329;28;20474;-78
2023/06/16 04:25:22;;;;;;;4.93;3.10;;;22.70;56.20;;;;;;5016522;28;20060;-79
2023/06/16 04:27:49;;;;;;;3.92;2.42;;;22.60;55.50;;;;;;5032767;28;20029;-79
2023/06/16 04:30:22;;;;;;;6.22;2.33;;;22.40;55.70;;;;;;5033770;28;20210;-79
2023/06/16 04:32:49;;;;;;;;;;;22.20;56.10;;;;;;5033318;28;20083;-79
2023/06/16 04:35:15;;;;;;;3.28;2.92;;;22.00;56.60;;;;;;5015867;28;20358;-79
2023/06/16 04:37:41;;;;;;;4.82;2.42;;;21.80;56.70;;;;;;5033351;28;20481;-79
2023/06/16 04:40:08;;;;;;;2.92;2.25;;;21.70;57.30;;;;;;5032021;28;20029;-79
2023/06/16 04:42:34;;;;;;;7.25;3.13;;;21.60;57.60;;;;;;5033272;28;20113;-79
2023/06/16 04:45:00;;;;;;;6.70;3.13;;;21.50;57.90;;;;;;5032925;28;20025;-79
2023/06/16 04:47:26;;;;;;;6.25;3.25;;;21.30;58.40;;;;;;5032946;28;20504;-79
2023/06/16 04:49:52;;;;;;;6.30;3.30;;;21.10;58.80;;;;;;5031637;28;20398;-79
2023/06/16 04:52:17;;;;;;;3.28;2.63;;;20.80;59.20;;;;;;5032884;28;20040;-79
2023/06/16 04:54:43;;;;;;;3.65;2.65;;;20.70;59.70;;;;;;5032299;28;20037;-79
2023/06/16 04:57:09;;;;;;;5.55;3.35;;;20.70;60.30;;;;;;5032378;28;20030;-79
2023/06/16 04:59:35;;;;;;;6.40;3.30;;;20.70;60.30;;;;;;5035778;28;20035;-79
2023/06/16 05:02:01;;;;;;;4.85;3.25;;;20.60;60.40;;;;;;5019942;28;20378;-79
2023/06/16 05:04:27;;;;;;;5.25;3.10;;;20.50;60.70;;;;;;5019279;28;20029;-79
2023/06/16 05:06:52;;;;;;;7.38;3.03;;;20.50;60.80;;;;;;5036838;28;20091;-79
2023/06/16 05:09:20;;;;;;;8.45;2.95;;;20.50;60.70;;;;;;5035901;28;20087;-79
2023/06/16 05:11:46;;;;;;;5.78;2.78;;;20.50;60.90;;;;;;5035680;28;20026;-79
2023/06/16 05:14:12;;;;;;;5.35;3.33;;;20.40;60.90;;;;;;5019268;28;20035;-79
2023/06/16 05:16:37;;;;;;;3.47;2.30;;;20.50;61.20;;;;;;5035402;28;20044;-79
2023/06/16 05:19:04;;;;;;;5.80;3.22;;;20.40;61.30;;;;;;5035586;28;20033;-79
2023/06/16 05:21:29;;;;;;;5.80;3.53;;;20.50;61.20;;;;;;5035342;28;20030;-79
2023/06/16 05:23:57;;;;;;;5.20;3.03;;;20.40;61.30;;;;;;5035830;28;20033;-79
2023/06/16 05:26:23;;;;;;;6.80;2.92;;;20.30;61.50;;;;;;5019070;28;20140;-79
2023/06/16 05:28:48;;;;;;;3.92;2.92;;;20.30;62.00;;;;;;5035086;28;20516;-79
2023/06/16 05:31:15;;;;;;;7.07;3.25;;;20.20;62.40;;;;;;5036423;28;20025;-79
2023/06/16 05:33:41;;;;;;;5.85;3.53;;;20.30;62.60;;;;;;5035309;28;20029;-79
2023/06/16 05:36:06;;;;;;;6.63;3.45;;;20.30;62.20;;;;;;5034813;28;20088;-79
2023/06/16 05:38:33;;;;;;;3.42;2.08;;;20.40;62.60;;;;;;5035282;28;20029;-71
2023/06/16 05:40:58;;;;;;;2.38;1.77;;;20.50;63.10;;;;;;5035807;28;20105;-71
2023/06/16 05:43:24;;;;;;;3.75;1.83;;;20.90;64.00;;;;;;5035588;28;20121;-71
2023/06/16 05:45:50;;;;;;;3.78;2.22;;;21.40;62.40;;;;;;5034642;28;20025;-71
2023/06/16 05:48:16;;;;;;;3.78;2.42;;;21.70;61.40;;;;;;5036193;28;20061;-71
2023/06/16 05:50:41;;;;;;;3.17;2.42;;;22.00;61.00;;;;;;5035333;28;20371;-71
2023/06/16 05:53:07;;;;;;;6.45;2.10;;;22.30;60.90;;;;;;5034928;28;20080;-70
2023/06/16 05:55:33;;;;;;;6.03;2.78;;;22.40;60.30;;;;;;5036033;28;20435;-70
2023/06/16 05:58:00;;;;;;;7.38;2.03;;;22.50;59.50;;;;;;5035975;28;20061;-70
2023/06/16 06:00:26;;;;;;;3.65;2.30;;;22.60;59.60;;;;;;5035845;28;20385;-70
2023/06/16 06:02:52;;;;;;;3.08;1.83;;;22.80;59.00;;;;;;5035770;28;20116;-70
2023/06/16 06:05:17;;;;;;;3.95;2.60;;;23.00;58.50;;;;;;5036155;28;20148;-70
2023/06/16 06:07:43;;;;;;;5.03;2.67;;;23.20;58.40;;;;;;5034463;28;20041;-71
2023/06/16 06:10:10;;;;;;;4.47;2.80;;;23.40;58.10;;;;;;5033690;28;20084;-70
2023/06/16 06:12:37;;;;;;;8.00;2.30;;;23.50;57.10;;;;;;5035692;28;20026;-71
2023/06/16 06:15:03;;;;;;;6.47;2.65;;;23.50;57.20;;;;;;5035833;28;20112;-71
2023/06/16 06:17:29;;;;;;;3.45;2.20;;;23.60;56.90;;;;;;5035699;28;20430;-70
2023/06/16 06:19:55;;;;;;;4.25;2.42;;;23.70;56.60;;;;;;5034383;28;20049;-70
2023/06/16 06:22:20;;;;;;;8.77;2.20;;;23.90;56.20;;;;;;5035729;28;20367;-70
2023/06/16 06:24:46;;;;;;;3.65;2.05;;;24.00;55.90;;;;;;5035300;28;20034;-69
2023/06/16 06:27:12;;;;;;;3.42;1.77;;;24.00;55.40;;;;;;5035392;28;20497;-71
2023/06/16 06:29:38;;;;;;;4.57;2.00;;;24.00;55.60;;;;;;5034425;28;20108;-70
2023/06/16 06:32:08;;;;;;;4.32;2.13;;;24.10;55.30;;;;;;5036080;28;20116;-70
2023/06/16 06:34:34;;;;;;;5.95;2.17;;;24.10;55.00;;;;;;5033875;28;20036;-71
2023/06/16 06:37:00;;;;;;;5.80;2.33;;;24.10;55.30;;;;;;5035188;28;20485;-70
2023/06/16 06:39:26;;;;;;;7.90;2.13;;;24.20;55.10;;;;;;5035346;28;20077;-70
2023/06/16 06:41:51;;;;;;;5.70;2.05;;;24.40;54.80;;;;;;5034749;28;20060;-70
2023/06/16 06:44:17;;;;;;;5.45;2.40;;;24.40;54.10;;;;;;5034977;28;20113;-72
2023/06/16 06:46:42;;;;;;;7.07;2.05;;;24.40;54.20;;;;;;5034724;28;20120;-70
2023/06/16 06:49:08;;;;;;;7.95;2.33;;;24.30;54.60;;;;;;5034980;28;20033;-70
2023/06/16 06:51:34;;;;;;;5.13;2.20;;;24.40;54.20;;;;;;5035282;28;20108;-71
2023/06/16 06:53:59;;;;;;;4.65;2.10;;;24.30;54.40;;;;;;5035375;28;20117;-71
2023/06/16 06:56:25;;;;;;;2.60;1.70;;;24.40;54.80;;;;;;5034827;28;20389;-71
2023/06/16 06:58:51;;;;;;;2.83;1.95;;;24.50;54.60;;;;;;5034809;28;20041;-71
2023/06/16 07:01:17;;;;;;;5.22;2.20;;;24.60;54.20;;;;;;5033491;28;20437;-71
2023/06/16 07:03:42;;;;;;;5.38;2.67;;;24.70;53.80;;;;;;5034409;28;20031;-71
2023/06/16 07:06:09;;;;;;;2.15;1.80;;;24.70;53.10;;;;;;5033877;28;20064;-71
2023/06/16 07:08:35;;;;;;;4.13;2.10;;;24.60;53.10;;;;;;5034785;28;20044;-70
2023/06/16 07:11:00;;;;;;;4.07;1.80;;;24.50;53.10;;;;;;5034717;28;20021;-70
2023/06/16 07:13:26;;;;;;;2.03;1.83;;;24.50;53.80;;;;;;5034382;28;20433;-71
2023/06/16 07:15:53;;;;;;;2.80;2.00;;;24.60;53.40;;;;;;5034494;28;20037;-70
2023/06/16 07:18:19;;;;;;;4.53;2.00;;;24.60;52.60;;;;;;5034464;28;20045;-70
2023/06/16 07:20:44;;;;;;;4.47;1.92;;;24.40;52.50;;;;;;5034368;28;20461;-71
2023/06/16 07:23:10;;;;;;;3.05;1.77;;;24.40;53.00;;;;;;5034275;28;20515;-83
2023/06/16 07:25:36;;;;;;;2.97;1.70;;;24.50;53.00;;;;;;5033163;28;20030;-74
2023/06/16 07:28:04;;;;;;;3.25;1.90;;;24.60;52.80;;;;;;5034102;28;20034;-75
2023/06/16 07:30:30;;;;;;;2.50;1.73;;;24.80;52.20;;;;;;5034348;28;20029;-75
2023/06/16 07:32:56;;;;;;;5.90;2.13;;;24.90;52.50;;;;;;5034153;28;20039;-75
2023/06/16 07:35:22;;;;;;;2.78;2.13;;;24.90;52.30;;;;;;5033852;28;20458;-75
2023/06/16 07:37:48;;;;;;;3.53;2.00;;;25.00;51.80;;;;;;5034017;28;20130;-75
2023/06/16 07:40:14;;;;;;;2.85;1.90;;;25.00;52.20;;;;;;5033898;28;20053;-75
2023/06/16 07:42:45;;;;;;;7.30;2.00;;;25.10;52.30;;;;;;5033509;28;20029;-75
2023/06/16 07:45:11;;;;;;;6.20;2.10;;;25.20;52.20;;;;;;5034456;28;20029;-76
2023/06/16 07:47:39;;;;;;;2.53;1.85;;;25.30;51.40;;;;;;5033670;28;20164;-75
2023/06/16 07:50:06;;;;;;;3.80;2.22;;;25.40;51.50;;;;;;5033653;28;20220;-75
2023/06/16 07:52:32;;;;;;;4.18;2.40;;;25.40;51.80;;;;;;5033779;28;20045;-76
2023/06/16 07:54:57;;;;;;;3.42;1.70;;;25.60;51.80;;;;;;5034039;28;20386;-76
2023/06/16 07:57:23;;;;;;;3.28;2.20;;;25.70;51.50;;;;;;5034176;28;20374;-76
2023/06/16 07:59:48;;;;;;;3.75;1.85;;;25.70;50.90;;;;;;5032183;28;20087;-76
2023/06/16 08:02:14;;;;;;;4.70;2.35;;;25.70;50.40;;;;;;5034318;28;20366;-73
2023/06/16 08:04:40;;;;;;;2.47;1.98;;;25.80;48.70;;;;;;5033969;28;20477;-73
2023/06/16 08:07:06;;;;;;;4.30;1.70;;;25.80;49.10;;;;;;5033711;28;20044;-75
2023/06/16 08:09:32;;;;;;;4.97;2.00;;;25.90;48.10;;;;;;5033462;28;20088;-77
2023/06/16 08:11:57;;;;;;;2.70;2.05;;;25.90;47.90;;;;;;5032461;28;20030;-77
2023/06/16 08:14:23;;;;;;;6.18;1.80;;;25.70;48.20;;;;;;5033628;28;20354;-74
2023/06/16 08:16:48;;;;;;;4.15;1.63;;;25.70;48.00;;;;;;5033579;28;20037;-73
2023/06/16 08:19:14;;;;;;;3.15;1.50;;;25.70;48.30;;;;;;5033559;28;20030;-75
2023/06/16 08:21:40;;;;;;;2.63;1.75;;;25.90;49.00;;;;;;5033798;28;20029;-75
2023/06/16 08:24:06;;;;;;;5.22;2.38;;;25.90;47.90;;;;;;5034068;28;20455;-74
2023/06/16 08:26:32;;;;;;;2.42;1.90;;;25.90;48.00;;;;;;5032891;28;20034;-75
2023/06/16 08:28:57;;;;;;;2.17;1.63;;;26.00;47.70;;;;;;5033469;28;20127;-75
2023/06/16 08:31:23;;;;;;;3.05;1.90;;;26.10;47.10;;;;;;5033167;28;20462;-75
2023/06/16 08:33:50;;;;;;;3.90;1.50;;;26.20;46.20;;;;;;5035011;28;20112;-75
2023/06/16 08:36:16;;;;;;;3.47;1.70;;;26.30;46.10;;;;;;5036797;28;20128;-78
2023/06/16 08:38:43;;;;;;;4.50;1.80;;;26.40;45.00;;;;;;5037606;28;20056;-77
2023/06/16 08:41:10;;;;;;;2.90;1.80;;;26.40;44.80;;;;;;5037089;28;20030;-76
2023/06/16 08:43:37;;;;;;;2.13;1.98;;;26.40;45.80;;;;;;5036925;28;20540;-77
2023/06/16 08:46:08;;;;;;;2.03;1.65;;;26.50;44.80;;;;;;5037018;28;20135;-75
2023/06/16 08:48:36;;;;;;;3.92;1.90;;;26.50;45.50;;;;;;5036816;28;20057;-75
2023/06/16 08:51:03;;;;;;;3.50;1.88;;;26.60;44.70;;;;;;5037100;28;20033;-76
2023/06/16 08:53:36;;;;;;;3.30;1.65;;;26.70;44.40;;;;;;5035870;28;20026;-75
2023/06/16 08:56:03;;;;;;;2.33;1.77;;;26.80;44.20;;;;;;5036140;28;20057;-74
2023/06/16 08:58:30;;;;;;;2.45;1.60;;;26.80;45.20;;;;;;5036991;28;20036;-75
2023/06/16 09:01:01;;;;;;;6.95;1.92;;;26.80;45.30;;;;;;5036708;28;20593;-76
2023/06/16 09:03:27;;;;;;;2.05;1.80;;;26.90;45.80;;;;;;5036688;28;20029;-77
2023/06/16 09:05:53;;;;;;;3.40;1.98;;;27.00;45.70;;;;;;5034992;28;20040;-75
2023/06/16 09:08:20;;;;;;;4.63;1.73;;;27.20;45.60;;;;;;5036756;28;20037;-75
2023/06/16 09:10:57;;;;;;;2.83;2.17;;;27.30;46.20;;;;;;5036945;28;20069;-76
2023/06/16 09:13:26;;;;;;;2.65;1.80;;;27.40;45.00;;;;;;5037373;28;20355;-76
2023/06/16 09:15:56;;;;;;;1.70;1.60;;;27.40;43.80;;;;;;5037954;28;20052;-75
2023/06/16 09:18:22;;;;;;;3.22;1.58;;;27.50;45.10;;;;;;5036959;28;20052;-75
2023/06/16 09:20:53;;;;;;;3.20;1.63;;;27.60;45.30;;;;;;5018590;28;20025;-73
2023/06/16 09:23:28;;;;;;;3.75;2.10;;;27.70;44.20;;;;;;5035877;28;20381;-74
2023/06/16 09:25:54;;;;;;;2.90;1.70;;;27.70;43.60;;;;;;5035053;28;20037;-73
2023/06/16 09:28:33;;;;;;;2.63;1.73;;;27.70;43.70;;;;;;5036279;28;20037;-74
2023/06/16 09:31:07;;;;;;;3.85;1.95;;;27.80;43.50;;;;;;5036665;28;20471;-75
2023/06/16 09:33:33;;;;;;;4.63;2.25;;;27.80;43.70;;;;;;5036301;28;20561;-75
2023/06/16 09:36:00;;;;;;;2.22;1.77;;;27.80;43.50;;;;;;5035992;28;20057;-74
2023/06/16 09:38:26;;;;;;;3.38;2.05;;;27.90;42.30;;;;;;5036415;28;20124;-75
2023/06/16 09:40:52;;;;;;;2.28;1.77;;;28.00;42.70;;;;;;5035868;28;20472;-75
2023/06/16 09:43:17;;;;;;;3.05;2.15;;;28.10;43.20;;;;;;5036115;28;20109;-75
2023/06/16 09:45:44;;;;;;;2.80;2.40;;;28.20;42.70;;;;;;5034956;28;20454;-74
2023/06/16 09:48:11;;;;;;;3.08;2.13;;;28.30;41.90;;;;;;5036163;28;20223;-74
2023/06/16 09:50:40;;;;;;;3.40;1.85;;;28.40;42.10;;;;;;5034772;28;20402;-75
2023/06/16 09:53:07;;;;;;;3.15;1.95;;;28.40;41.80;;;;;;5034762;28;20033;-74
2023/06/16 09:55:40;;;;;;;2.47;1.50;;;28.40;42.90;;;;;;5035280;28;20033;-75
2023/06/16 09:58:06;;;;;;;2.97;2.00;;;28.40;42.30;;;;;;5035683;28;20398;-76
2023/06/16 10:00:33;;;;;;;3.88;2.20;;;28.40;41.30;;;;;;5035772;28;20029;-81
2023/06/16 10:03:00;;;;;;;4.25;1.90;;;28.20;40.80;;;;;;5020628;28;20025;-81
2023/06/16 10:05:28;;;;;;;3.65;1.80;;;28.20;41.80;;;;;;5038572;28;20120;-82
2023/06/16 10:07:58;;;;;;;2.17;1.73;;;28.20;42.80;;;;;;5039796;28;20026;-81
2023/06/16 10:10:29;;;;;;;4.20;2.15;;;28.40;41.90;;;;;;5037825;28;20034;-79
2023/06/16 10:12:56;;;;;;;2.20;1.70;;;28.30;41.50;;;;;;5037464;28;20029;-81
2023/06/16 10:15:23;;;;;;;2.80;2.00;;;28.40;41.60;;;;;;5036198;28;20389;-80
2023/06/16 10:17:54;;;;;;;2.55;2.08;;;28.40;41.70;;;;;;5020481;28;20041;-80
2023/06/16 10:20:23;;;;;;;4.07;2.15;;;28.60;41.90;;;;;;5036234;28;20029;-78
2023/06/16 10:22:50;;;;;;;5.85;1.80;;;28.70;42.00;;;;;;5039403;28;20025;-79
2023/06/16 10:25:16;;;;;;;3.25;1.70;;;28.80;41.70;;;;;;5035306;28;20090;-79
2023/06/16 10:27:43;;;;;;;3.97;1.80;;;28.90;41.30;;;;;;5037499;28;20040;-79
2023/06/16 10:30:16;;;;;;;3.40;1.90;;;28.90;40.90;;;;;;5039600;28;20089;-77
2023/06/16 10:32:48;;;;;;;4.10;2.13;;;28.90;40.70;;;;;;5041004;28;20097;-78
2023/06/16 10:35:14;;;;;;;3.08;2.00;;;28.80;40.70;;;;;;5038708;28;20075;-79
2023/06/16 10:37:40;;;;;;;2.53;2.10;;;28.70;40.80;;;;;;5036961;28;20061;-79
2023/06/16 10:40:09;;;;;;;4.47;2.10;;;28.80;41.30;;;;;;5037179;28;20493;-79
2023/06/16 10:42:38;;;;;;;4.30;2.30;;;29.00;41.50;;;;;;5037281;28;20484;-80
2023/06/16 10:45:36;;;;;;;2.90;2.10;;;29.10;41.80;;;;;;5037518;28;20485;-80
2023/06/16 10:48:05;;;;;;;4.82;1.90;;;29.20;42.20;;;;;;5008892;28;20057;-80
2023/06/16 10:50:38;;;;;;;4.63;2.00;;;29.30;41.80;;;;;;5037991;28;20056;-80
2023/06/16 10:53:22;;;;;;;5.75;2.08;;;29.30;41.70;;;;;;5036328;28;20037;-81
2023/06/16 10:56:04;;;;;;;3.70;2.05;;;29.40;42.00;;;;;;5037192;28;20053;-80
2023/06/16 10:58:30;;;;;;;3.97;2.17;;;29.30;42.60;;;;;;5038480;28;20042;-80
2023/06/16 11:01:02;;;;;;;2.67;2.03;;;29.10;42.00;;;;;;5036385;28;20450;-80
2023/06/16 11:03:34;;;;;;;2.95;2.65;;;29.00;41.80;;;;;;5034596;28;20470;-80
2023/06/16 11:06:00;;;;;;;2.97;2.10;;;29.10;41.30;;;;;;5035401;28;20076;-80
2023/06/16 11:08:27;;;;;;;2.33;2.10;;;29.20;41.20;;;;;;5035413;28;20045;-80
2023/06/16 11:10:56;;;;;;;4.07;2.75;;;29.30;40.90;;;;;;5034037;28;20053;-79
2023/06/16 11:13:27;;;;;;;4.40;1.88;;;29.40;41.30;;;;;;5035126;28;20116;-80
2023/06/16 11:15:54;;;;;;;4.60;2.20;;;29.50;40.80;;;;;;5034467;28;20466;-80
2023/06/16 11:18:24;;;;;;;2.35;1.92;;;29.50;40.40;;;;;;5034628;28;20040;-79
2023/06/16 11:20:54;;;;;;;5.70;2.22;;;29.50;40.90;;;;;;5034314;28;20492;-80
2023/06/16 11:23:20;;;;;;;3.97;2.10;;;29.70;41.00;;;;;;5034637;28;20026;-79
2023/06/16 11:25:46;;;;;;;3.97;2.20;;;29.60;41.60;;;;;;5016717;28;20151;-80
2023/06/16 11:28:11;;;;;;;4.32;2.30;;;29.50;41.80;;;;;;5034569;28;20038;-80
2023/06/16 11:30:37;;;;;;;3.95;2.20;;;29.50;42.00;;;;;;5033741;28;20488;-81
2023/06/16 11:33:03;;;;;;;3.08;2.28;;;29.30;41.90;;;;;;5033365;28;20033;-80
2023/06/16 11:35:33;;;;;;;4.57;2.10;;;29.20;42.40;;;;;;5033424;28;20034;-80
2023/06/16 11:38:02;;;;;;;3.47;2.50;;;29.10;42.70;;;;;;5033985;28;20041;-79
2023/06/16 11:40:32;;;;;;;3.33;2.47;;;29.00;42.10;;;;;;5017781;28;20036;-81
2023/06/16 11:43:02;;;;;;;3.92;2.28;;;29.00;43.20;;;;;;5034222;28;20029;-81
2023/06/16 11:45:29;;;;;;;5.15;2.45;;;29.10;43.00;;;;;;5033220;28;20038;-80
2023/06/16 11:47:57;;;;;;;4.80;2.10;;;29.00;42.50;;;;;;5033512;28;20057;-80
2023/06/16 11:50:23;;;;;;;3.72;2.10;;;28.80;42.90;;;;;;5035648;28;20056;-81
2023/06/16 11:52:50;;;;;;;5.38;1.95;;;28.60;42.50;;;;;;5034216;28;20032;-80
2023/06/16 11:55:15;;;;;;;2.42;2.22;;;28.20;42.70;;;;;;5036265;28;20116;-80
2023/06/16 11:57:41;;;;;;;3.00;2.28;;;28.00;43.00;;;;;;5034308;28;20064;-81
2023/06/16 12:00:09;;;;;;;4.28;2.17;;;28.00;43.20;;;;;;5035254;28;20347;-80
2023/06/16 12:02:37;;;;;;;3.97;1.95;;;28.00;43.30;;;;;;5036447;28;20030;-81
2023/06/16 12:05:10;;;;;;;4.75;2.28;;;28.10;43.30;;;;;;5036491;28;20021;-81
2023/06/16 12:07:37;;;;;;;8.82;2.28;;;28.10;43.30;;;;;;5035441;28;20037;-81
2023/06/16 12:10:04;;;;;;;3.47;2.05;;;28.20;43.50;;;;;;5035466;28;20037;-80
2023/06/16 12:12:33;;;;;;;2.35;1.90;;;28.20;43.30;;;;;;5038608;28;20474;-82
2023/06/16 12:15:02;;;;;;;3.70;2.13;;;28.30;42.90;;;;;;5033083;28;20124;-82
2023/06/16 12:17:28;;;;;;;2.08;1.50;;;28.40;43.30;;;;;;5034055;28;20075;-82
2023/06/16 12:19:54;;;;;;;4.63;1.60;;;28.40;43.50;;;;;;5033267;28;20025;-82
2023/06/16 12:22:21;;;;;;;2.47;1.85;;;28.50;43.80;;;;;;5033597;28;20442;-83
2023/06/16 12:24:48;;;;;;;2.10;1.80;;;28.50;42.90;;;;;;5017063;28;20033;-82
2023/06/16 12:27:24;;;;;;;3.75;2.30;;;28.40;43.00;;;;;;5033719;28;20084;-82
2023/06/16 12:29:59;;;;;;;2.45;1.95;;;28.50;42.70;;;;;;5033469;28;20026;-82
2023/06/16 12:32:30;;;;;;;4.93;1.90;;;28.60;43.70;;;;;;5033983;28;20140;-82
2023/06/16 12:34:55;;;;;;;5.35;2.20;;;28.90;43.20;;;;;;5031997;28;20033;-82
2023/06/16 12:37:28;;;;;;;2.63;2.20;;;29.00;43.20;;;;;;5033472;28;20026;-82
2023/06/16 12:40:03;;;;;;;3.63;1.92;;;29.00;42.10;;;;;;5031993;28;20026;-81
2023/06/16 12:42:29;;;;;;;3.67;2.00;;;29.00;42.20;;;;;;5032564;28;20029;-82
2023/06/16 12:44:59;;;;;;;4.30;2.40;;;28.90;42.20;;;;;;5032408;28;20037;-83
2023/06/16 12:47:26;;;;;;;3.45;2.05;;;28.90;42.40;;;;;;5032399;28;20050;-81
2023/06/16 12:49:52;;;;;;;5.25;2.00;;;28.70;42.20;;;;;;5032311;28;20033;-82